Time;durP1;ratioP1;P1;durP2;ratioP2;P2;SDS_P1;SDS_P2;PMS_P1;PMS_P2;Temp;Humidity;BMP_temperature;BMP_pressure;BME280_temperature;BME280_humidity;BME280_pressure;Samples;Min_cycle;Max_cycle;Signal;HPM_P1;HPM_P2
2022/10/23 00:00:41;;;;;;;;;;;10.50;79.40;;;9.46;nan;96315.50;5065862;28;20112;-84
2022/10/23 00:03:08;;;;;;;;;;;10.50;79.50;;;9.45;nan;96319.31;5032352;28;20213;-84
2022/10/23 00:05:39;;;;;;;;;;;10.50;79.50;;;9.46;nan;96323.69;5049257;28;19921;-83
2022/10/23 00:08:07;;;;;;;;;;;10.50;79.30;;;9.48;nan;96323.41;5066397;28;20112;-84
2022/10/23 00:10:40;;;;;;;;;;;10.50;79.40;;;9.47;nan;96325.34;5049672;28;19921;-83
2022/10/23 00:13:08;;;;;;;;;;;10.50;79.40;;;9.47;nan;96332.69;5050825;28;19921;-83
2022/10/23 00:15:36;;;;;;;;;;;10.50;79.50;;;9.47;nan;96306.22;5049118;28;19927;-84
2022/10/23 00:18:04;;;;;;;;;;;10.50;79.40;;;9.48;nan;96313.31;5049424;28;19928;-84
2022/10/23 00:20:32;;;;;;;;;;;10.50;79.40;;;9.47;nan;96316.31;5050725;28;19927;-84
2022/10/23 00:23:00;;;;;;;;;;;10.50;79.30;;;9.48;nan;96323.41;5066230;28;19927;-84
2022/10/23 00:25:28;;;;;;;;;;;10.50;79.40;;;9.49;nan;96319.59;5050157;28;19925;-83
2022/10/23 00:27:57;;;;;;;;;;;10.50;79.40;;;9.47;nan;96322.59;5050608;28;19921;-83
2022/10/23 00:30:26;;;;;;;;;;;10.50;79.50;;;9.48;nan;96327.00;5049515;28;19921;-84
2022/10/23 00:32:53;;;;;;;;;;;10.50;79.30;;;9.46;nan;96315.50;5032838;28;19920;-84
2022/10/23 00:35:21;;;;;;;;;;;10.50;79.50;;;9.49;nan;96314.94;5032305;28;19921;-83
2022/10/23 00:37:49;;;;;;;;;;;10.50;79.40;;;9.49;nan;96317.69;5049360;28;20098;-83
2022/10/23 00:40:17;;;;;;;;;;;10.50;79.40;;;9.48;nan;96332.44;5049424;28;19921;-83
2022/10/23 00:42:46;;;;;;;;;;;10.50;79.30;;;9.49;nan;96316.88;5065999;28;19927;-84
2022/10/23 00:45:21;;;;;;;;;;;10.50;79.40;;;9.48;nan;96324.25;5048761;28;19924;-84
2022/10/23 00:47:49;;;;;;;;;;;10.50;79.40;;;9.50;nan;96329.44;5034244;28;19927;-83
2022/10/23 00:50:17;;;;;;;;;;;10.50;79.50;;;9.50;nan;96332.19;5052767;28;19920;-83
2022/10/23 00:52:46;;;;;;;;;;;10.50;79.50;;;9.50;nan;96343.94;5052530;28;19927;-83
2022/10/23 00:55:15;;;;;;;;;;;10.50;79.50;;;9.50;nan;96324.78;5052088;28;20209;-83
2022/10/23 00:57:44;;;;;;;;;;;10.50;79.50;;;9.50;nan;96337.66;5053484;28;20351;-84
2022/10/23 01:00:15;;;;;;;;;;;10.50;79.50;;;9.50;nan;96341.19;5069332;28;19921;-83
2022/10/23 01:02:44;;;;;;;;;;;10.50;79.60;;;9.50;nan;96337.66;5069177;28;19927;-84
2022/10/23 01:05:14;;;;;;;;;;;10.50;79.50;;;9.50;nan;96341.19;5051894;28;20090;-83
2022/10/23 01:07:45;;;;;;;;;;;10.50;79.60;;;9.51;nan;96337.38;5069120;28;19921;-83
2022/10/23 01:10:16;;;;;;;;;;;10.50;79.60;;;9.49;nan;96342.28;5052590;28;19921;-83
2022/10/23 01:12:46;;;;;;;;;;;10.50;79.50;;;9.51;nan;96339.31;5052221;28;20212;-83
2022/10/23 01:15:18;;;;;;;;;;;10.50;79.60;;;9.50;nan;96341.19;5068620;28;20090;-83
2022/10/23 01:17:49;;;;;;;;;;;10.50;79.50;;;9.50;nan;96343.94;5068881;28;19943;-83
2022/10/23 01:20:30;;;;;;;;;;;10.50;79.70;;;9.51;nan;96355.69;5069007;28;19928;-83
2022/10/23 01:23:26;;;;;;;;;;;10.50;79.60;;;9.51;nan;96356.50;5052086;28;19921;-84
2022/10/23 01:26:02;;;;;;;;;;;10.50;79.70;;;9.51;nan;96356.50;5052193;28;20213;-84
2022/10/23 01:28:33;;;;;;;;;;;10.50;79.70;;;9.51;nan;96367.44;5052166;28;19921;-83
2022/10/23 01:31:02;;;;;;;;;;;10.50;79.70;;;9.52;nan;96363.63;5035487;28;19927;-84
2022/10/23 01:33:37;;;;;;;;;;;10.50;79.70;;;9.52;nan;96373.75;5068156;28;19935;-83
2022/10/23 01:36:06;;;;;;;;;;;10.50;79.60;;;9.51;nan;96378.38;5068677;28;19920;-83
2022/10/23 01:38:38;;;;;;;;;;;10.50;79.70;;;9.53;nan;96386.31;5052017;28;19921;-83
2022/10/23 01:41:17;;;;;;;;;;;10.50;79.60;;;9.52;nan;96385.50;5052007;28;19927;-84
2022/10/23 01:43:48;;;;;;;;;;;10.50;79.60;;;9.52;nan;96392.88;5051189;28;20144;-83
2022/10/23 01:46:17;;;;;;;;;;;10.50;79.60;;;9.52;nan;96390.94;5051771;28;19921;-83
2022/10/23 01:48:47;;;;;;;;;;;10.50;79.60;;;9.54;nan;96392.59;5035229;28;19928;-83
2022/10/23 01:51:15;;;;;;;;;;;10.50;79.80;;;9.52;nan;96393.69;5035271;28;19921;-83
2022/10/23 01:53:45;;;;;;;;;;;10.50;79.70;;;9.53;nan;96402.72;5051268;28;19921;-84
2022/10/23 01:56:18;;;;;;;;;;;10.50;79.60;;;9.54;nan;96409.00;5051062;28;19927;-84
2022/10/23 01:58:49;;;;;;;;;;;10.50;79.70;;;9.54;nan;96409.84;5051639;28;19921;-84
2022/10/23 02:01:18;;;;;;;;;;;10.50;79.80;;;9.54;nan;96409.84;5051466;28;19927;-83
2022/10/23 02:03:50;;;;;;;;;;;10.60;79.70;;;9.54;nan;96414.47;5051093;28;20124;-83
2022/10/23 02:06:19;;;;;;;;;;;10.50;79.70;;;9.54;nan;96419.94;5051172;28;19927;-84
2022/10/23 02:08:47;;;;;;;;;;;10.60;79.70;;;9.54;nan;96419.94;5051517;28;19942;-83
2022/10/23 02:11:15;;;;;;;;;;;10.50;79.80;;;9.54;nan;96428.97;5051457;28;19921;-83
2022/10/23 02:13:45;;;;;;;;;;;10.60;79.70;;;9.54;nan;96430.88;5050809;28;20147;-83
2022/10/23 02:16:23;;;;;;;;;;;10.50;79.80;;;9.52;nan;96434.69;5051166;28;19927;-83
2022/10/23 02:18:54;;;;;;;;;;;10.50;79.60;;;9.55;nan;96432.53;5068125;28;19921;-83
2022/10/23 02:21:27;;;;;;;;;;;10.60;79.70;;;9.55;nan;96433.34;5068071;28;19940;-84
2022/10/23 02:23:57;;;;;;;;;;;10.60;79.70;;;9.54;nan;96428.97;5051222;28;19927;-83
2022/10/23 02:26:26;;;;;;;;;;;10.50;79.60;;;9.55;nan;96432.53;5067105;28;20208;-84
2022/10/23 02:28:58;;;;;;;;;;;10.60;79.60;;;9.55;nan;96441.56;5070610;28;19920;-84
2022/10/23 02:31:28;;;;;;;;;;;10.60;79.70;;;9.55;nan;96443.44;5074467;28;19920;-83
2022/10/23 02:33:56;;;;;;;;;;;10.60;79.70;;;9.55;nan;96454.38;5090635;28;19920;-83
2022/10/23 02:36:24;;;;;;;;;;;10.60;79.70;;;9.55;nan;96448.91;5091194;28;19927;-84
2022/10/23 02:38:52;;;;;;;;;;;10.60;79.70;;;9.56;nan;96450.56;5091173;28;20120;-83
2022/10/23 02:41:26;;;;;;;;;;;10.60;79.70;;;9.55;nan;96459.84;5091124;28;19920;-83
2022/10/23 02:44:01;;;;;;;;;;;10.60;79.80;;;9.56;nan;96461.50;5073770;28;19927;-83
2022/10/23 02:46:34;;;;;;;;;;;10.60;79.70;;;9.55;nan;96470.78;5090801;28;19920;-83
2022/10/23 02:49:05;;;;;;;;;;;10.60;79.70;;;9.55;nan;96477.09;5092241;28;19920;-84
2022/10/23 02:51:37;;;;;;;;;;;10.60;79.80;;;9.55;nan;96482.56;5107928;28;20301;-84
2022/10/23 02:54:06;;;;;;;;;;;10.60;79.80;;;9.56;nan;96491.56;5090546;28;19920;-84
2022/10/23 02:56:38;;;;;;;;;;;10.60;79.80;;;9.56;nan;96492.38;5090832;28;19920;-84
2022/10/23 02:59:10;;;;;;;;;;;10.60;79.80;;;9.57;nan;96501.41;5074117;28;19920;-83
2022/10/23 03:01:45;;;;;;;;;;;10.60;79.80;;;9.56;nan;96497.03;5074159;28;19920;-84
2022/10/23 03:04:13;;;;;;;;;;;10.60;79.80;;;9.57;nan;96512.34;5107220;28;19927;-84
2022/10/23 03:06:41;;;;;;;;;;;10.60;80.60;;;9.57;nan;96517.81;5090521;28;20200;-84
2022/10/23 03:09:15;;;;;;;;;;;10.60;79.80;;;9.56;nan;96511.50;5090753;28;19920;-84
2022/10/23 03:11:44;;;;;;;;;;;10.60;79.80;;;9.57;nan;96509.63;5090241;28;19920;-83
2022/10/23 03:14:12;;;;;;;;;;;10.60;79.80;;;9.57;nan;96512.34;5073391;28;19927;-84
2022/10/23 03:16:41;;;;;;;;;;;10.60;79.80;;;9.58;nan;96519.47;5073652;28;19974;-83
2022/10/23 03:19:11;;;;;;;;;;;10.60;79.80;;;9.57;nan;96528.75;5074130;28;19920;-84
2022/10/23 03:21:41;;;;;;;;;;;10.60;79.80;;;9.56;nan;96527.09;5073788;28;19920;-83
2022/10/23 03:24:09;;;;;;;;;;;10.60;79.80;;;9.56;nan;96522.44;5106925;28;19920;-84
2022/10/23 03:26:42;;;;;;;;;;;10.60;79.70;;;9.57;nan;96542.41;5107325;28;19969;-84
2022/10/23 03:29:11;;;;;;;;;;;10.60;79.80;;;9.57;nan;96534.22;5107420;28;19920;-83
2022/10/23 03:31:46;;;;;;;;;;;10.60;79.80;;;9.57;nan;96542.41;5090508;28;19927;-83
2022/10/23 03:34:14;;;;;;;;;;;10.60;79.80;;;9.57;nan;96543.22;5106842;28;20351;-83
2022/10/23 03:36:42;;;;;;;;;;;10.60;79.80;;;9.57;nan;96539.69;5107208;28;20112;-84
2022/10/23 03:39:11;;;;;;;;;;;10.60;79.80;;;9.58;nan;96546.81;5073495;28;19927;-84
2022/10/23 03:41:39;;;;;;;;;;;10.60;79.90;;;9.58;nan;96555.81;5073524;28;19920;-83
2022/10/23 03:44:08;;;;;;;;;;;10.60;79.80;;;9.57;nan;96543.22;5089753;28;19920;-84
2022/10/23 03:46:36;;;;;;;;;;;10.60;79.90;;;9.58;nan;96563.19;5073330;28;19921;-84
2022/10/23 03:49:06;;;;;;;;;;;10.60;79.80;;;9.57;nan;96556.91;5090074;28;19920;-84
2022/10/23 03:51:34;;;;;;;;;;;10.60;79.90;;;9.58;nan;96561.28;5049953;28;19921;-83
2022/10/23 03:54:02;;;;;;;;;;;10.60;80.00;;;9.58;nan;96574.94;5032913;28;19927;-83
2022/10/23 03:56:30;;;;;;;;;;;10.60;79.90;;;9.57;nan;96578.75;5049794;28;19921;-84
2022/10/23 03:58:58;;;;;;;;;;;10.60;79.90;;;9.57;nan;96584.22;5033303;28;19920;-83
2022/10/23 04:01:27;;;;;;;;;;;10.60;79.90;;;9.58;nan;96579.59;5049965;28;19927;-84
2022/10/23 04:03:56;;;;;;;;;;;10.60;79.80;;;9.59;nan;96581.25;5049152;28;19927;-84
2022/10/23 04:06:27;;;;;;;;;;;10.60;79.90;;;9.59;nan;96593.00;5033503;28;20208;-84
2022/10/23 04:08:58;;;;;;;;;;;10.60;79.80;;;9.59;nan;96593.00;5049692;28;19921;-84
2022/10/23 04:11:26;;;;;;;;;;;10.60;79.90;;;9.58;nan;96601.47;5065967;28;19942;-84
2022/10/23 04:13:54;;;;;;;;;;;10.60;80.00;;;9.58;nan;96596.81;5072575;28;20208;-84
2022/10/23 04:16:22;;;;;;;;;;;10.60;80.00;;;9.59;nan;96605.84;5089868;28;19920;-84
2022/10/23 04:18:51;;;;;;;;;;;10.60;79.90;;;9.58;nan;96598.75;5089743;28;19920;-84
2022/10/23 04:21:19;;;;;;;;;;;10.60;79.90;;;9.58;nan;96601.47;5073016;28;20211;-84
2022/10/23 04:23:48;;;;;;;;;;;10.60;79.90;;;9.58;nan;96610.47;5093367;28;19920;-84
2022/10/23 04:26:18;;;;;;;;;;;10.60;79.90;;;9.59;nan;96603.13;5076435;28;19926;-84
2022/10/23 04:28:46;;;;;;;;;;;10.60;79.90;;;9.59;nan;96606.66;5093074;28;19920;-84
2022/10/23 04:31:14;;;;;;;;;;;10.60;79.90;;;9.59;nan;96611.31;5110233;28;19920;-84
2022/10/23 04:33:44;;;;;;;;;;;10.60;79.90;;;9.59;nan;96603.13;5109480;28;20112;-84
2022/10/23 04:36:22;;;;;;;;;;;10.60;80.00;;;9.59;nan;96608.59;5110461;28;19920;-84
2022/10/23 04:38:52;;;;;;;;;;;10.60;79.90;;;9.60;nan;96621.19;5094107;28;19920;-84
2022/10/23 04:41:21;;;;;;;;;;;10.60;79.80;;;9.59;nan;96614.88;5093143;28;19920;-84
2022/10/23 04:43:49;;;;;;;;;;;10.60;80.00;;;9.59;nan;96619.53;5092469;28;20208;-84
2022/10/23 04:46:17;;;;;;;;;;;10.60;79.90;;;9.59;nan;96620.34;5092880;28;20074;-84
2022/10/23 04:48:48;;;;;;;;;;;10.60;79.90;;;9.59;nan;96617.59;5109939;28;19920;-85
2022/10/23 04:51:28;;;;;;;;;;;10.60;79.90;;;9.59;nan;96617.59;5092955;28;19926;-84
2022/10/23 04:54:10;;;;;;;;;;;10.60;79.90;;;9.60;nan;96618.44;5092374;28;19920;-84
2022/10/23 04:56:58;;;;;;;;;;;10.60;80.00;;;9.59;nan;96625.81;5092509;28;19924;-83
2022/10/23 04:59:27;;;;;;;;;;;10.60;80.00;;;9.59;nan;96620.34;5092755;28;20123;-84
2022/10/23 05:01:56;;;;;;;;;;;10.60;80.00;;;9.60;nan;96621.19;5092678;28;20204;-84
2022/10/23 05:04:25;;;;;;;;;;;10.60;80.00;;;9.60;nan;96615.72;5092259;28;19920;-84
2022/10/23 05:07:11;;;;;;;;;;;10.60;80.00;;;9.60;nan;96632.94;5092466;28;20226;-84
2022/10/23 05:10:08;;;;;;;;;;;10.60;80.00;;;9.60;nan;96643.03;5070311;28;19920;-84
2022/10/23 05:12:45;;;;;;;;;;;10.60;80.00;;;9.61;nan;96650.16;5092684;28;19926;-83
2022/10/23 05:15:13;;;;;;;;;;;10.60;80.00;;;9.60;nan;96656.72;5092041;28;19920;-84
2022/10/23 05:17:42;;;;;;;;;;;10.60;80.00;;;9.61;nan;96661.09;5075540;28;19920;-84
2022/10/23 05:20:11;;;;;;;;;;;10.60;80.00;;;9.61;nan;96641.97;5092466;28;19920;-84
2022/10/23 05:22:41;;;;;;;;;;;10.60;80.00;;;9.61;nan;96652.91;5092334;28;19920;-84
2022/10/23 05:25:13;;;;;;;;;;;10.60;80.00;;;9.64;nan;96668.78;5091849;28;20231;-84
2022/10/23 05:27:45;;;;;;;;;;;10.60;79.90;;;9.62;nan;96671.78;5092173;28;20204;-84
2022/10/23 05:30:15;;;;;;;;;;;10.60;79.90;;;9.64;nan;96679.72;5092349;28;19920;-84
2022/10/23 05:32:43;;;;;;;;;;;10.60;79.90;;;9.63;nan;96678.06;5091763;28;19942;-84
2022/10/23 05:35:13;;;;;;;;;;;10.70;80.00;;;9.63;nan;96680.78;5091715;28;19932;-84
2022/10/23 05:37:42;;;;;;;;;;;10.60;79.90;;;9.63;nan;96675.31;5060084;28;19926;-84
2022/10/23 05:40:16;;;;;;;;;;;10.60;79.80;;;9.63;nan;96676.16;5072021;28;19927;-84
2022/10/23 05:42:44;;;;;;;;;;;10.60;79.80;;;9.63;nan;96670.69;5071972;28;19921;-84
2022/10/23 05:45:16;;;;;;;;;;;10.60;79.90;;;9.63;nan;96683.53;5071548;28;20111;-84
2022/10/23 05:48:02;;;;;;;;;;;10.60;79.80;;;9.64;nan;96693.38;5071703;28;19920;-84
2022/10/23 05:51:04;;;;;;;;;;;10.70;80.00;;;9.64;nan;96698.84;5060343;28;19920;-84
2022/10/23 05:53:49;;;;;;;;;;;10.70;80.00;;;9.64;nan;96704.31;5051470;28;19925;-83
2022/10/23 05:56:41;;;;;;;;;;;10.60;79.90;;;9.65;nan;96708.69;5051332;28;19921;-84
2022/10/23 05:59:23;;;;;;;;;;;10.70;80.00;;;9.64;nan;96702.41;5068466;28;19979;-84
2022/10/23 06:02:01;;;;;;;;;;;10.70;79.90;;;9.65;nan;96703.22;5051596;28;19974;-84
2022/10/23 06:04:47;;;;;;;;;;;10.70;79.90;;;9.66;nan;96703.00;5067883;28;19928;-84
2022/10/23 06:07:15;;;;;;;;;;;10.70;79.90;;;9.68;nan;96700.00;5051343;28;19921;-84
2022/10/23 06:09:46;;;;;;;;;;;10.70;80.00;;;9.70;nan;96697.84;5034999;28;19921;-84
2022/10/23 06:12:15;;;;;;;;;;;10.70;79.90;;;9.72;nan;96706.63;5051405;28;19989;-84
2022/10/23 06:14:46;;;;;;;;;;;10.70;79.80;;;9.75;nan;96703.38;5051097;28;19921;-84
2022/10/23 06:17:15;;;;;;;;;;;10.80;79.60;;;9.77;nan;96714.88;5051307;28;19920;-84
2022/10/23 06:19:45;;;;;;;;;;;10.80;79.50;;;9.80;nan;96711.66;5051350;28;20116;-84
2022/10/23 06:22:16;;;;;;;;;;;10.80;79.40;;;9.80;nan;96719.84;5068101;28;19935;-84
2022/10/23 06:24:51;;;;;;;;;;;10.80;79.30;;;9.82;nan;96720.44;5050742;28;19920;-84
2022/10/23 06:27:26;;;;;;;;;;;10.80;79.30;;;9.83;nan;96726.72;5051050;28;19921;-84
2022/10/23 06:29:55;;;;;;;;;;;10.80;79.30;;;9.81;nan;96724.25;5051443;28;19921;-84
2022/10/23 06:32:23;;;;;;;;;;;10.80;79.30;;;9.83;nan;96738.50;5051121;28;19927;-84
2022/10/23 06:35:05;;;;;;;;;;;10.80;79.30;;;9.85;nan;96738.22;5033961;28;19921;-84
2022/10/23 06:37:34;;;;;;;;;;;10.80;79.30;;;9.85;nan;96748.34;5050981;28;19928;-84
2022/10/23 06:40:22;;;;;;;;;;;10.90;79.30;;;9.85;nan;96756.56;5051125;28;19943;-84
2022/10/23 06:42:59;;;;;;;;;;;10.90;79.30;;;9.85;nan;96748.34;5050925;28;19931;-84
2022/10/23 06:45:38;;;;;;;;;;;10.90;79.30;;;9.83;nan;96754.91;5049497;28;19921;-84
2022/10/23 06:48:15;;;;;;;;;;;10.90;79.30;;;9.86;nan;96766.41;5050655;28;19921;-84
2022/10/23 06:51:11;;;;;;;;;;;10.90;79.40;;;9.88;nan;96770.56;5050837;28;19927;-84
2022/10/23 06:53:44;;;;;;;;;;;10.90;79.30;;;9.89;nan;96765.91;5050173;28;19921;-84
2022/10/23 06:56:33;;;;;;;;;;;10.90;79.30;;;9.89;nan;96754.97;5050513;28;19987;-84
2022/10/23 06:59:06;;;;;;;;;;;10.90;79.30;;;9.89;nan;96749.47;5067432;28;19920;-84
2022/10/23 07:01:34;;;;;;;;;;;10.90;79.20;;;9.89;nan;96757.69;5034156;28;19921;-84
2022/10/23 07:04:02;;;;;;;;;;;10.90;79.20;;;9.89;nan;96771.38;5050229;28;19927;-83
2022/10/23 07:06:31;;;;;;;;;;;10.90;79.20;;;9.88;nan;96769.72;5050321;28;19920;-84
2022/10/23 07:08:59;;;;;;;;;;;10.90;79.20;;;9.88;nan;96770.56;5033943;28;19921;-84
2022/10/23 07:11:47;;;;;;;;;;;10.90;79.20;;;9.87;nan;96765.34;5020371;28;19920;-84
2022/10/23 07:14:17;;;;;;;;;;;10.90;79.20;;;9.87;nan;96770.81;5049918;28;19943;-84
2022/10/23 07:16:45;;;;;;;;;;;10.90;79.20;;;9.87;nan;96776.28;5050339;28;19921;-84
2022/10/23 07:19:14;;;;;;;;;;;10.90;79.30;;;9.87;nan;96773.56;5050424;28;19921;-84
2022/10/23 07:22:11;;;;;;;;;;;10.90;79.30;;;9.85;nan;96781.19;5046930;28;20254;-83
2022/10/23 07:24:59;;;;;;;;;;;10.90;79.50;;;9.85;nan;96783.91;5049515;28;20121;-84
2022/10/23 07:27:36;;;;;;;;;;;10.90;79.40;;;9.83;nan;96790.47;5066951;28;19943;-84
2022/10/23 07:30:07;;;;;;;;;;;10.80;79.40;;;9.82;nan;96791.53;5067001;28;20118;-84
2022/10/23 07:32:44;;;;;;;;;;;10.80;79.30;;;9.81;nan;96792.59;5050141;28;19927;-84
2022/10/23 07:35:30;;;;;;;;;;;10.80;79.40;;;9.80;nan;96790.94;5050873;28;19927;-84
2022/10/23 07:38:07;;;;;;;;;;;10.80;79.50;;;9.80;nan;96792.88;5050130;28;19920;-84
2022/10/23 07:40:38;;;;;;;;;;;10.80;79.50;;;9.79;nan;96799.41;5050098;28;20094;-84
2022/10/23 07:43:09;;;;;;;;;;;10.80;79.50;;;9.79;nan;96800.22;5053280;28;19927;-84
2022/10/23 07:45:39;;;;;;;;;;;10.80;79.60;;;9.79;nan;96794.75;5073080;28;19921;-83
2022/10/23 07:48:16;;;;;;;;;;;10.80;79.60;;;9.79;nan;96793.94;5073304;28;19986;-83
2022/10/23 07:51:00;;;;;;;;;;;10.80;79.60;;;9.78;nan;96792.28;5090154;28;19936;-84
2022/10/23 07:53:28;;;;;;;;;;;10.80;79.60;;;9.78;nan;96793.09;5086748;28;19921;-84
2022/10/23 07:56:11;;;;;;;;;;;10.80;79.60;;;9.78;nan;96795.84;5070661;28;19920;-84
2022/10/23 07:58:58;;;;;;;;;;;10.80;79.60;;;9.79;nan;96802.16;5073497;28;19924;-84
2022/10/23 08:01:30;;;;;;;;;;;10.80;79.70;;;9.79;nan;96799.41;5073411;28;20117;-84
2022/10/23 08:03:59;;;;;;;;;;;10.80;79.60;;;9.79;nan;96794.75;5073142;28;19925;-84
2022/10/23 08:06:27;;;;;;;;;;;10.80;79.70;;;9.79;nan;96802.16;5073525;28;20119;-84
2022/10/23 08:08:55;;;;;;;;;;;10.80;79.60;;;9.79;nan;96802.97;5073407;28;19926;-83
2022/10/23 08:11:25;;;;;;;;;;;10.80;79.70;;;9.80;nan;96806.53;5090227;28;19921;-84
2022/10/23 08:13:53;;;;;;;;;;;10.80;79.70;;;9.78;nan;96809.50;5056106;28;20212;-83
2022/10/23 08:16:22;;;;;;;;;;;10.80;79.70;;;9.80;nan;96803.81;5056582;28;19920;-84
2022/10/23 08:19:03;;;;;;;;;;;10.80;79.60;;;9.80;nan;96809.28;5073231;28;19920;-84
2022/10/23 08:21:31;;;;;;;;;;;10.80;79.70;;;9.80;nan;96817.47;5073122;28;19920;-84
2022/10/23 08:23:59;;;;;;;;;;;10.80;79.60;;;9.79;nan;96804.88;5072687;28;19921;-84
2022/10/23 08:26:29;;;;;;;;;;;10.80;79.60;;;9.79;nan;96816.63;5072971;28;19920;-84
2022/10/23 08:28:58;;;;;;;;;;;10.80;79.60;;;9.79;nan;96822.09;5089931;28;20212;-84
2022/10/23 08:31:27;;;;;;;;;;;10.80;79.70;;;9.80;nan;96818.28;5073118;28;19920;-84
2022/10/23 08:34:15;;;;;;;;;;;10.80;79.60;;;9.79;nan;96824.84;5073625;28;19927;-84
2022/10/23 08:36:45;;;;;;;;;;;10.80;79.70;;;9.81;nan;96830.06;5073003;28;19927;-84
2022/10/23 08:39:13;;;;;;;;;;;10.80;79.70;;;9.79;nan;96833.03;5089754;28;19920;-84
2022/10/23 08:41:52;;;;;;;;;;;10.80;79.70;;;9.80;nan;96829.22;5089695;28;19920;-84
2022/10/23 08:44:23;;;;;;;;;;;10.80;79.70;;;9.81;nan;96841.81;5072437;28;19920;-83
2022/10/23 08:46:57;;;;;;;;;;;10.80;79.70;;;9.81;nan;96833.63;5072741;28;19927;-84
2022/10/23 08:49:47;;;;;;;;;;;10.80;79.60;;;9.81;nan;96847.28;5073996;28;20239;-84
2022/10/23 08:52:19;;;;;;;;;;;10.80;79.60;;;9.82;nan;96848.94;5055996;28;19921;-84
2022/10/23 08:54:56;;;;;;;;;;;10.80;79.70;;;9.80;nan;96842.91;5055439;28;19920;-84
2022/10/23 08:57:24;;;;;;;;;;;10.80;79.60;;;9.82;nan;96854.44;5072473;28;19942;-84
2022/10/23 08:59:55;;;;;;;;;;;10.80;79.60;;;9.83;nan;96847.03;5072739;28;19926;-84
2022/10/23 09:02:25;;;;;;;;;;;10.80;79.70;;;9.83;nan;96852.50;5072639;28;19920;-84
2022/10/23 09:04:55;;;;;;;;;;;10.80;79.70;;;9.86;nan;96864.88;5055328;28;19920;-84
2022/10/23 09:07:28;;;;;;;;;;;10.80;79.60;;;9.85;nan;96864.03;5071870;28;19927;-84
2022/10/23 09:10:02;;;;;;;;;;;10.90;79.70;;;9.85;nan;96866.75;5072340;28;19927;-83
2022/10/23 09:12:31;;;;;;;;;;;10.80;79.60;;;9.86;nan;96873.06;5072370;28;20227;-84
2022/10/23 09:15:14;;;;;;;;;;;10.90;79.70;;;9.86;nan;96875.81;5071717;28;19942;-84
2022/10/23 09:17:43;;;;;;;;;;;10.90;79.70;;;9.87;nan;96877.47;5055567;28;19927;-84
2022/10/23 09:20:18;;;;;;;;;;;10.90;79.70;;;9.87;nan;96882.94;5072711;28;19920;-84
2022/10/23 09:22:46;;;;;;;;;;;10.90;79.70;;;9.86;nan;96886.75;5055462;28;19931;-84
2022/10/23 09:25:17;;;;;;;;;;;10.90;79.70;;;9.86;nan;96892.22;5072839;28;19928;-83
2022/10/23 09:27:47;;;;;;;;;;;10.90;79.70;;;9.86;nan;96884.00;5071941;28;20097;-84
2022/10/23 09:30:25;;;;;;;;;;;10.90;79.80;;;9.86;nan;96884.00;5072023;28;19921;-83
2022/10/23 09:32:53;;;;;;;;;;;10.90;79.70;;;9.86;nan;96892.22;5073220;28;19921;-83
2022/10/23 09:35:24;;;;;;;;;;;10.90;79.80;;;9.86;nan;96884.00;5054761;28;20208;-84
2022/10/23 09:37:53;;;;;;;;;;;10.90;79.80;;;9.85;nan;96880.44;5055046;28;19921;-84
2022/10/23 09:40:25;;;;;;;;;;;10.90;79.80;;;9.87;nan;96888.41;5072001;28;19920;-84
2022/10/23 09:42:55;;;;;;;;;;;10.90;79.80;;;9.87;nan;96885.69;5055263;28;20120;-84
2022/10/23 09:45:29;;;;;;;;;;;10.90;79.80;;;9.87;nan;96883.75;5071242;28;19920;-84
2022/10/23 09:48:05;;;;;;;;;;;10.90;79.80;;;9.90;nan;96882.41;5071789;28;19927;-84
2022/10/23 09:50:35;;;;;;;;;;;10.90;79.70;;;9.90;nan;96879.69;5073044;28;20112;-84
2022/10/23 09:53:03;;;;;;;;;;;10.90;79.70;;;9.89;nan;96887.06;5071852;28;19927;-84
2022/10/23 09:55:31;;;;;;;;;;;10.90;79.60;;;9.91;nan;96890.38;5072484;28;19921;-83
2022/10/23 09:57:59;;;;;;;;;;;10.90;79.60;;;9.92;nan;96891.22;5071449;28;20295;-84
2022/10/23 10:00:27;;;;;;;;;;;10.90;79.60;;;9.92;nan;96888.47;5072849;28;19920;-83
2022/10/23 10:02:57;;;;;;;;;;;10.90;79.60;;;9.93;nan;96887.41;5072756;28;20238;-84
2022/10/23 10:05:57;;;;;;;;;;;10.90;79.50;;;9.92;nan;96889.31;5059307;28;19943;-84
2022/10/23 10:08:36;;;;;;;;;;;10.90;79.50;;;9.92;nan;96881.09;5071408;28;19920;-84
2022/10/23 10:11:07;;;;;;;;;;;10.90;79.50;;;9.93;nan;96881.94;5088386;28;19920;-84
2022/10/23 10:13:52;;;;;;;;;;;10.90;79.60;;;9.92;nan;96885.72;5070900;28;19928;-84
2022/10/23 10:16:24;;;;;;;;;;;10.90;79.50;;;9.93;nan;96876.44;5071311;28;20132;-84
2022/10/23 10:18:56;;;;;;;;;;;10.90;79.50;;;9.94;nan;96883.59;5054410;28;19920;-84
2022/10/23 10:21:27;;;;;;;;;;;10.90;79.60;;;9.93;nan;96887.41;5053796;28;19927;-84
2022/10/23 10:23:59;;;;;;;;;;;10.90;79.50;;;9.93;nan;96887.41;5087511;28;19920;-84
2022/10/23 10:26:33;;;;;;;;;;;10.90;79.50;;;9.93;nan;96885.50;5071394;28;19920;-84
2022/10/23 10:29:06;;;;;;;;;;;10.90;79.50;;;9.92;nan;96891.22;5071134;28;19940;-84
2022/10/23 10:31:40;;;;;;;;;;;10.90;79.50;;;9.91;nan;96890.38;5088035;28;19927;-84
2022/10/23 10:34:11;;;;;;;;;;;10.90;79.50;;;9.92;nan;96885.72;5053791;28;20013;-84
2022/10/23 10:36:47;;;;;;;;;;;10.90;79.60;;;9.90;nan;96887.88;5071203;28;19920;-84
2022/10/23 10:39:21;;;;;;;;;;;10.90;79.60;;;9.92;nan;96883.00;5087971;28;19921;-84
2022/10/23 10:41:57;;;;;;;;;;;10.90;79.60;;;9.92;nan;96885.72;5071019;28;20119;-84
2022/10/23 10:45:08;;;;;;;;;;;10.90;79.60;;;9.92;nan;96880.25;5070410;28;19921;-84
2022/10/23 10:47:40;;;;;;;;;;;10.90;79.60;;;9.91;nan;96884.91;5049745;28;19958;-84
2022/10/23 10:50:17;;;;;;;;;;;10.90;79.60;;;9.91;nan;96884.06;5087556;28;20132;-84
2022/10/23 10:52:57;;;;;;;;;;;10.90;79.60;;;9.91;nan;96884.91;5070796;28;19926;-84
2022/10/23 10:55:28;;;;;;;;;;;10.90;79.60;;;9.91;nan;96884.91;5071485;28;19943;-84
2022/10/23 10:57:57;;;;;;;;;;;10.90;79.80;;;9.92;nan;96877.53;5070517;28;19920;-84
2022/10/23 11:00:25;;;;;;;;;;;10.90;79.70;;;9.91;nan;96875.88;5071818;28;19920;-84
2022/10/23 11:02:54;;;;;;;;;;;10.90;79.70;;;9.91;nan;96876.72;5087481;28;19927;-84
2022/10/23 11:05:27;;;;;;;;;;;10.90;79.70;;;9.91;nan;96879.44;5070129;28;19920;-84
2022/10/23 11:07:59;;;;;;;;;;;10.90;79.70;;;9.91;nan;96882.19;5067010;28;19921;-85
2022/10/23 11:10:27;;;;;;;;;;;10.90;79.70;;;9.92;nan;96885.72;5073853;28;19920;-84
2022/10/23 11:12:55;;;;;;;;;;;10.90;79.70;;;9.91;nan;96890.38;5090671;28;20319;-84
2022/10/23 11:15:25;;;;;;;;;;;10.90;79.70;;;9.93;nan;96876.44;5091198;28;19920;-84
2022/10/23 11:17:55;;;;;;;;;;;10.90;79.70;;;9.92;nan;96875.63;5090601;28;19926;-84
2022/10/23 11:20:37;;;;;;;;;;;10.90;79.80;;;9.91;nan;96873.97;5107564;28;20131;-84
2022/10/23 11:23:15;;;;;;;;;;;10.90;79.70;;;9.92;nan;96888.47;5107509;28;20216;-84
2022/10/23 11:25:50;;;;;;;;;;;10.90;79.70;;;9.94;nan;96883.59;5091592;28;19920;-84
2022/10/23 11:28:23;;;;;;;;;;;10.90;79.80;;;9.92;nan;96880.25;5090456;28;19920;-84
2022/10/23 11:31:07;;;;;;;;;;;10.90;79.70;;;9.93;nan;96871.84;5106805;28;20119;-84
2022/10/23 11:34:08;;;;;;;;;;;10.90;79.70;;;9.92;nan;96874.78;5089905;28;20238;-85
2022/10/23 11:36:45;;;;;;;;;;;10.90;79.60;;;9.92;nan;96875.63;5107336;28;19921;-84
2022/10/23 11:39:22;;;;;;;;;;;10.90;79.70;;;9.93;nan;96876.44;5090410;28;19947;-84
2022/10/23 11:41:52;;;;;;;;;;;10.90;79.80;;;9.92;nan;96880.25;5090326;28;19920;-84
2022/10/23 11:44:26;;;;;;;;;;;10.90;79.70;;;9.93;nan;96898.34;5049678;28;19927;-84
2022/10/23 11:47:01;;;;;;;;;;;10.90;79.80;;;9.92;nan;96891.22;5049917;28;19920;-84
2022/10/23 11:49:29;;;;;;;;;;;10.90;79.70;;;9.94;nan;96895.34;5050107;28;19921;-85
2022/10/23 11:52:01;;;;;;;;;;;10.90;79.70;;;9.94;nan;96889.88;5050140;28;20121;-84
2022/10/23 11:54:31;;;;;;;;;;;10.90;79.70;;;9.95;nan;96890.72;5049545;28;19929;-84
2022/10/23 11:57:10;;;;;;;;;;;11.00;79.70;;;9.95;nan;96882.50;5049784;28;19921;-85
2022/10/23 11:59:52;;;;;;;;;;;11.00;79.70;;;9.95;nan;96879.78;5049942;28;20231;-84
2022/10/23 12:02:26;;;;;;;;;;;11.00;79.70;;;9.97;nan;96883.09;5033400;28;19927;-84
2022/10/23 12:04:54;;;;;;;;;;;11.00;79.60;;;9.96;nan;96881.44;5049302;28;19920;-83
2022/10/23 12:07:23;;;;;;;;;;;11.00;79.60;;;9.98;nan;96882.03;5033042;28;19927;-84